Time;durP1;ratioP1;P1;durP2;ratioP2;P2;SDS_P1;SDS_P2;PMS_P1;PMS_P2;Temp;Humidity;BMP_temperature;BMP_pressure;BME280_temperature;BME280_humidity;BME280_pressure;Samples;Min_cycle;Max_cycle;Signal;HPM_P1;HPM_P2
2021/04/05 00:00:47;;;;;;;27.07;12.20;;;;;;;3.01;63.79;99634.05;1686536;85;21269;-84
2021/04/05 00:03:14;;;;;;;20.40;11.10;;;;;;;2.99;63.79;99633.73;1682495;85;21100;-84
2021/04/05 00:05:40;;;;;;;23.85;12.30;;;;;;;2.97;63.91;99629.92;1677368;85;21530;-84
2021/04/05 00:08:07;;;;;;;21.23;11.97;;;;;;;2.95;64.00;99629.61;1674511;85;21169;-84
2021/04/05 00:10:47;;;;;;;26.35;12.37;;;;;;;2.90;64.11;99619.44;1688132;85;21178;-84
2021/04/05 00:13:19;;;;;;;22.93;12.10;;;;;;;2.87;64.17;99610.94;1682021;85;21139;-83
2021/04/05 00:15:45;;;;;;;24.80;12.10;;;;;;;2.84;64.25;99605.89;1687716;85;21168;-83
2021/04/05 00:18:13;;;;;;;19.50;11.85;;;;;;;2.81;64.37;99605.11;1688738;85;21115;-83
2021/04/05 00:20:56;;;;;;;19.73;13.72;;;;;;;2.79;64.43;99601.73;1688831;85;21551;-84
2021/04/05 00:23:23;;;;;;;19.52;11.55;;;;;;;2.80;64.43;99600.84;1660904;86;21153;-84
2021/04/05 00:25:49;;;;;;;22.15;13.13;;;;;;;2.81;64.47;99604.28;1661067;86;21195;-83
2021/04/05 00:28:16;;;;;;;22.55;12.70;;;;;;;2.79;64.56;99597.83;1681316;85;21548;-84
2021/04/05 00:30:42;;;;;;;22.70;12.82;;;;;;;2.78;64.57;99596.16;1688654;85;21124;-83
2021/04/05 00:33:09;;;;;;;23.38;14.40;;;;;;;2.76;64.58;99593.23;1688650;85;21159;-83
2021/04/05 00:35:38;;;;;;;24.67;14.05;;;;;;;2.73;64.64;99580.37;1688737;85;21562;-84
2021/04/05 00:38:08;;;;;;;25.77;13.53;;;;;;;2.69;64.66;99573.17;1688053;85;21193;-84
2021/04/05 00:40:39;;;;;;;25.10;14.15;;;;;;;2.64;64.76;99573.89;1688855;85;21185;-83
2021/04/05 00:43:09;;;;;;;25.05;14.40;;;;;;;2.59;64.88;99561.55;1666828;85;21216;-83
2021/04/05 00:45:35;;;;;;;25.40;13.03;;;;;;;2.52;64.92;99562.80;1661017;86;21128;-86
2021/04/05 00:48:03;;;;;;;26.35;14.13;;;;;;;2.47;65.11;99551.77;1660928;86;21131;-85
2021/04/05 00:50:49;;;;;;;25.65;14.58;;;;;;;2.43;65.24;99550.24;1661099;86;21187;-86
2021/04/05 00:53:19;;;;;;;27.70;14.58;;;;;;;2.42;65.37;99537.69;1661135;86;21167;-84
2021/04/05 00:55:47;;;;;;;24.10;13.93;;;;;;;2.38;65.43;99526.22;1661159;86;21197;-84
2021/04/05 00:58:15;;;;;;;29.57;16.70;;;;;;;2.33;65.55;99513.42;1661070;86;21115;-84
2021/04/05 01:00:47;;;;;;;26.82;15.32;;;;;;;2.28;65.66;99514.97;1661158;86;21179;-84
2021/04/05 01:03:20;;;;;;;31.15;16.30;;;;;;;2.26;65.66;99515.50;1661274;86;21131;-84
2021/04/05 01:05:57;;;;;;;31.40;16.65;;;;;;;2.25;65.70;99509.09;1660207;86;22318;-84
2021/04/05 01:08:23;;;;;;;31.73;17.37;;;;;;;2.22;65.87;99504.87;1660371;86;21657;-83
2021/04/05 01:10:50;;;;;;;33.92;18.32;;;;;;;2.19;65.71;99503.72;1661074;86;21562;-83
2021/04/05 01:13:18;;;;;;;31.50;16.05;;;;;;;2.19;65.81;99494.61;1661107;86;21123;-84
2021/04/05 01:15:45;;;;;;;27.95;15.88;;;;;;;2.17;65.76;99483.42;1661157;86;21124;-84
2021/04/05 01:18:14;;;;;;;25.90;16.62;;;;;;;2.15;65.78;99477.48;1661615;85;21641;-83
2021/04/05 01:20:41;;;;;;;27.32;16.17;;;;;;;2.13;65.89;99474.09;1661109;86;22315;-84
2021/04/05 01:23:07;;;;;;;27.55;16.27;;;;;;;2.12;65.87;99467.22;1661051;86;21173;-84
2021/04/05 01:25:33;;;;;;;28.32;16.32;;;;;;;2.09;65.85;99460.41;1661143;86;21719;-84
2021/04/05 01:27:59;;;;;;;24.07;15.10;;;;;;;2.08;65.95;99463.94;1661161;85;21103;-84
2021/04/05 01:30:31;;;;;;;26.60;15.28;;;;;;;2.08;66.07;99450.09;1661055;86;21159;-84
2021/04/05 01:33:14;;;;;;;27.35;14.60;;;;;;;2.05;66.00;99448.48;1659351;85;21185;-84
2021/04/05 01:35:56;;;;;;;28.90;16.27;;;;;;;2.05;66.13;99438.53;1661283;86;21155;-84
2021/04/05 01:38:31;;;;;;;28.70;16.32;;;;;;;2.04;66.04;99439.44;1661297;86;21577;-83
2021/04/05 01:41:11;;;;;;;25.92;16.62;;;;;;;2.02;66.09;99430.42;1654492;86;21139;-83
2021/04/05 01:43:39;;;;;;;24.82;13.83;;;;;;;1.99;66.16;99424.07;1661221;86;21616;-83
2021/04/05 01:46:07;;;;;;;30.17;14.33;;;;;;;1.96;66.16;99417.72;1661156;86;21210;-84
2021/04/05 01:48:34;;;;;;;26.57;14.00;;;;;;;1.95;66.20;99416.52;1661126;86;21270;-84
2021/04/05 01:51:05;;;;;;;25.37;13.15;;;;;;;1.94;66.30;99414.81;1661121;86;21116;-83
2021/04/05 01:53:33;;;;;;;23.05;13.95;;;;;;;1.95;66.16;99413.91;1661056;86;21175;-84
2021/04/05 01:56:05;;;;;;;25.70;14.85;;;;;;;1.94;66.11;99405.27;1662994;85;21141;-84
2021/04/05 01:58:31;;;;;;;21.10;13.08;;;;;;;1.94;66.15;99400.06;1686142;85;21163;-84
2021/04/05 02:00:58;;;;;;;22.95;14.35;;;;;;;1.93;66.13;99388.42;1689034;85;21608;-84
2021/04/05 02:03:28;;;;;;;24.52;15.15;;;;;;;1.90;66.25;99380.77;1688762;85;21155;-84
2021/04/05 02:06:07;;;;;;;23.80;15.13;;;;;;;1.82;66.28;99369.48;1688762;85;21166;-84
2021/04/05 02:08:33;;;;;;;24.60;14.45;;;;;;;1.76;66.31;99366.72;1688800;85;21095;-84
2021/04/05 02:11:07;;;;;;;21.17;13.30;;;;;;;1.70;66.46;99369.63;1688980;85;21150;-83
2021/04/05 02:13:33;;;;;;;23.60;14.00;;;;;;;1.69;66.57;99371.86;1688876;85;21574;-84
2021/04/05 02:15:59;;;;;;;20.85;12.65;;;;;;;1.67;66.53;99363.75;1688866;85;21137;-84
2021/04/05 02:18:26;;;;;;;21.97;13.05;;;;;;;1.67;66.68;99361.15;1677108;85;21092;-83
2021/04/05 02:20:54;;;;;;;19.62;12.88;;;;;;;1.65;66.56;99348.24;1638433;85;21127;-84
2021/04/05 02:23:21;;;;;;;19.15;13.22;;;;;;;1.61;66.62;99341.49;1660942;86;21155;-83
2021/04/05 02:28:45;;;;;;;21.15;12.80;;;;;;;1.52;66.78;99342.82;1661079;86;21216;-84
2021/04/05 02:31:18;;;;;;;20.25;13.22;;;;;;;1.48;67.04;99323.54;1660691;86;21135;-86
2021/04/05 02:33:47;;;;;;;16.48;11.48;;;;;;;1.42;67.17;99303.92;1661124;86;21162;-86
2021/04/05 02:36:17;;;;;;;18.87;11.65;;;;;;;1.37;67.20;99300.23;1661059;86;21136;-86
2021/04/05 02:38:47;;;;;;;15.03;10.38;;;;;;;1.36;67.33;99297.27;1660933;86;21180;-85
2021/04/05 02:41:15;;;;;;;17.15;10.08;;;;;;;1.37;67.22;99292.90;1661115;86;21550;-83
2021/04/05 02:43:42;;;;;;;15.10;10.88;;;;;;;1.38;67.28;99290.23;1661043;86;21131;-83
2021/04/05 02:46:23;;;;;;;15.85;10.70;;;;;;;1.40;67.29;99284.48;1661015;86;21171;-83
2021/04/05 02:48:51;;;;;;;18.35;12.33;;;;;;;1.41;67.23;99276.22;1660927;86;21139;-84
2021/04/05 02:51:18;;;;;;;20.95;12.55;;;;;;;1.38;67.29;99269.44;1661073;86;21590;-84
2021/04/05 02:53:55;;;;;;;21.07;11.95;;;;;;;1.38;67.41;99258.18;1661088;86;21507;-84
2021/04/05 02:56:22;;;;;;;23.75;12.10;;;;;;;1.36;67.36;99261.34;1687161;85;21127;-84
2021/04/05 02:58:52;;;;;;;17.37;11.57;;;;;;;1.36;67.46;99255.67;1688685;85;21147;-84
2021/04/05 03:01:19;;;;;;;16.52;11.97;;;;;;;1.36;67.39;99252.23;1688754;85;21175;-84
2021/04/05 03:03:47;;;;;;;16.12;10.82;;;;;;;1.36;67.31;99249.17;1688705;85;21566;-84
2021/04/05 03:06:17;;;;;;;18.85;11.73;;;;;;;1.37;67.24;99246.11;1689012;85;22327;-84
2021/04/05 03:08:43;;;;;;;20.65;11.48;;;;;;;1.38;67.25;99239.98;1673031;85;21135;-84
2021/04/05 03:11:14;;;;;;;13.68;10.55;;;;;;;1.35;67.17;99225.84;1665011;85;21111;-84
2021/04/05 03:13:41;;;;;;;14.43;10.30;;;;;;;1.33;67.21;99218.61;1688021;85;21104;-84
2021/04/05 03:16:12;;;;;;;19.77;12.82;;;;;;;1.30;67.20;99210.97;1688794;85;21100;-84
2021/04/05 03:18:39;;;;;;;18.02;12.33;;;;;;;1.27;67.38;99206.77;1687980;85;21145;-84
2021/04/05 03:21:07;;;;;;;17.80;11.38;;;;;;;1.21;67.54;99196.68;1688747;85;21148;-84
2021/04/05 03:23:34;;;;;;;23.83;12.55;;;;;;;1.19;67.63;99189.91;1688791;85;21514;-84
2021/04/05 03:26:00;;;;;;;20.12;12.35;;;;;;;1.16;67.64;99185.70;1688830;85;21107;-84
2021/04/05 03:28:26;;;;;;;17.57;10.58;;;;;;;1.13;67.58;99178.06;1688828;85;21571;-84
2021/04/05 03:31:04;;;;;;;20.85;10.68;;;;;;;1.12;67.69;99172.03;1687155;85;21136;-84
2021/04/05 03:33:56;;;;;;;18.02;10.45;;;;;;;1.10;67.71;99166.53;1660119;86;21214;-84
2021/04/05 03:36:54;;;;;;;14.50;9.60;;;;;;;1.10;67.74;99169.97;1661279;86;21559;-83
2021/04/05 03:39:21;;;;;;;14.90;10.03;;;;;;;1.11;67.83;99152.14;1661285;85;21780;-84
2021/04/05 03:42:12;;;;;;;13.48;10.20;;;;;;;1.13;67.77;99146.42;1661641;85;21150;-83
2021/04/05 03:44:58;;;;;;;17.42;10.60;;;;;;;1.15;67.84;99139.40;1660974;86;21603;-83
2021/04/05 03:47:59;;;;;;;13.08;9.70;;;;;;;1.14;67.76;99128.60;1659992;86;22432;-84
2021/04/05 03:50:36;;;;;;;16.12;10.58;;;;;;;1.14;67.87;99126.00;1663063;85;21206;-83
2021/04/05 03:53:17;;;;;;;16.12;10.55;;;;;;;1.15;67.92;99120.34;1676582;85;21523;-83
2021/04/05 03:55:46;;;;;;;15.05;9.10;;;;;;;1.14;67.77;99106.98;1660722;86;21183;-84
2021/04/05 03:58:16;;;;;;;13.22;8.95;;;;;;;1.11;67.96;99106.67;1684967;85;21121;-84
2021/04/05 04:00:43;;;;;;;14.23;9.28;;;;;;;1.06;67.94;99107.40;1688808;85;21132;-83
2021/04/05 04:03:14;;;;;;;13.45;9.28;;;;;;;1.04;67.99;99094.94;1688467;85;21135;-83
2021/04/05 04:05:47;;;;;;;12.43;8.35;;;;;;;1.05;67.99;99089.28;1688757;85;21167;-83
2021/04/05 04:08:28;;;;;;;10.05;7.83;;;;;;;1.05;67.96;99091.88;1679559;85;21283;-85
2021/04/05 04:10:50;;;;;;;12.35;6.92;;;;;;;1.07;68.02;99084.39;1659228;86;21163;-85
2021/04/05 04:13:18;;;;;;;12.53;7.37;;;;;;;1.09;67.93;99075.23;1661082;86;21139;-84
2021/04/05 04:15:50;;;;;;;13.15;7.83;;;;;;;1.10;67.91;99072.53;1660996;86;21127;-84
2021/04/05 04:18:18;;;;;;;10.75;6.72;;;;;;;1.10;67.82;99066.03;1660845;86;21221;-84
2021/04/05 04:20:45;;;;;;;10.80;6.72;;;;;;;1.12;67.84;99060.77;1660968;86;21119;-84
2021/04/05 04:23:14;;;;;;;10.40;6.78;;;;;;;1.10;67.92;99048.31;1660952;86;21185;-83
2021/04/05 04:25:40;;;;;;;9.78;6.53;;;;;;;1.09;67.93;99044.88;1661009;86;21185;-83
2021/04/05 04:28:07;;;;;;;8.65;6.72;;;;;;;1.10;67.91;99040.05;1661017;86;21151;-83
2021/04/05 04:30:33;;;;;;;11.03;7.08;;;;;;;1.12;67.85;99033.49;1677382;85;21115;-83
2021/04/05 04:33:05;;;;;;;11.63;6.95;;;;;;;1.11;67.88;99026.59;1688915;85;21153;-83
2021/04/05 04:35:33;;;;;;;9.55;6.30;;;;;;;1.11;67.89;99023.53;1665175;85;21140;-83
2021/04/05 04:38:00;;;;;;;8.98;6.67;;;;;;;1.13;67.94;99010.48;1688837;85;21198;-83
2021/04/05 04:40:30;;;;;;;10.75;5.85;;;;;;;1.16;67.96;98997.31;1688882;85;21151;-84
2021/04/05 04:42:58;;;;;;;9.88;5.70;;;;;;;1.18;68.04;98998.05;1688924;85;21191;-84
2021/04/05 04:45:26;;;;;;;7.97;5.90;;;;;;;1.19;68.06;98985.92;1673753;85;21126;-84
2021/04/05 04:47:57;;;;;;;9.03;5.58;;;;;;;1.21;68.14;98974.97;1661355;85;21169;-83
2021/04/05 04:50:26;;;;;;;8.13;5.55;;;;;;;1.22;68.17;98972.73;1661344;85;21169;-84
2021/04/05 04:52:54;;;;;;;8.70;5.22;;;;;;;1.23;68.18;98971.36;1661096;86;21155;-83
2021/04/05 04:55:22;;;;;;;9.05;6.08;;;;;;;1.29;68.40;98967.59;1661195;86;21159;-83
2021/04/05 04:57:48;;;;;;;6.40;4.75;;;;;;;1.31;68.35;98964.42;1681041;85;21567;-83
2021/04/05 05:00:15;;;;;;;9.70;5.65;;;;;;;1.34;68.42;98951.26;1689064;85;21103;-83
2021/04/05 05:02:43;;;;;;;11.40;6.05;;;;;;;1.38;68.42;98950.16;1664937;85;21141;-83
2021/04/05 05:05:12;;;;;;;9.33;4.92;;;;;;;1.44;68.46;98946.38;1688810;85;21136;-83
2021/04/05 05:07:41;;;;;;;6.95;4.37;;;;;;;1.49;68.51;98937.88;1688793;85;21172;-83
2021/04/05 05:10:11;;;;;;;8.70;4.97;;;;;;;1.54;68.54;98931.45;1689058;85;21148;-83
2021/04/05 05:12:39;;;;;;;11.20;5.03;;;;;;;1.59;68.43;98928.14;1688725;85;21136;-83
2021/04/05 05:15:09;;;;;;;8.15;4.75;;;;;;;1.66;68.44;98927.32;1688906;85;21471;-83
2021/04/05 05:17:39;;;;;;;8.68;5.30;;;;;;;1.71;68.33;98925.30;1688515;85;21116;-83
2021/04/05 05:20:06;;;;;;;6.05;4.17;;;;;;;1.76;68.41;98919.35;1689016;85;21578;-83
2021/04/05 05:22:36;;;;;;;10.68;4.33;;;;;;;1.82;68.43;98912.96;1668214;85;21268;-83
2021/04/05 05:25:05;;;;;;;8.33;5.20;;;;;;;1.88;68.42;98912.13;1660304;86;21135;-83
2021/04/05 05:27:41;;;;;;;17.37;5.58;;;;;;;1.96;68.36;98914.27;1661049;86;21598;-83
2021/04/05 05:30:08;;;;;;;6.45;4.58;;;;;;;2.02;68.42;98900.89;1661248;86;21551;-83
2021/04/05 05:32:37;;;;;;;6.30;3.95;;;;;;;2.10;68.33;98904.33;1661092;86;21177;-83
2021/04/05 05:35:07;;;;;;;8.43;4.87;;;;;;;2.16;68.33;98907.86;1661125;86;21131;-82
2021/04/05 05:37:33;;;;;;;10.08;4.62;;;;;;;2.22;68.28;98893.18;1641290;85;21135;-83
2021/04/05 05:39:59;;;;;;;6.12;4.17;;;;;;;2.31;68.20;98895.23;1665073;85;21285;-83
2021/04/05 05:42:47;;;;;;;10.82;5.70;;;;;;;2.39;68.19;98893.91;1688595;85;21076;-83
2021/04/05 05:45:18;;;;;;;6.00;3.87;;;;;;;2.44;68.22;98885.37;1688810;85;21207;-84
2021/04/05 05:48:14;;;;;;;7.33;5.30;;;;;;;2.50;68.15;98882.36;1664327;85;21183;-84
2021/04/05 05:50:49;;;;;;;9.53;5.72;;;;;;;2.58;68.35;98884.86;1688978;85;21523;-84
2021/04/05 05:54:00;;;;;;;10.95;5.10;;;;;;;2.65;68.43;98876.67;1688621;85;21200;-84
2021/04/05 05:56:48;;;;;;;9.10;5.62;;;;;;;2.70;68.44;98871.55;1688812;85;21155;-83
2021/04/05 06:00:05;;;;;;;7.72;5.53;;;;;;;2.77;68.64;98862.88;1688882;85;21124;-83
2021/04/05 06:03:11;;;;;;;9.38;6.75;;;;;;;2.85;68.62;98862.38;1661100;86;21189;-82
2021/04/05 06:06:07;;;;;;;10.43;5.28;;;;;;;2.92;68.77;98863.17;1645352;85;21154;-82
2021/04/05 06:08:48;;;;;;;9.40;5.75;;;;;;;3.02;68.80;98859.03;1676919;85;21172;-84
2021/04/05 06:11:37;;;;;;;8.33;5.47;;;;;;;3.13;68.81;98857.06;1688884;85;21523;-83
2021/04/05 06:14:33;;;;;;;14.68;6.22;;;;;;;3.22;68.67;98855.59;1688747;85;21314;-83
2021/04/05 06:17:05;;;;;;;9.55;7.10;;;;;;;3.32;68.81;98863.17;1635467;85;21583;-83
2021/04/05 06:19:39;;;;;;;13.98;8.15;;;;;;;3.44;68.94;98855.02;1688823;85;21189;-83
2021/04/05 06:22:19;;;;;;;10.08;6.65;;;;;;;3.56;68.83;98850.78;1687602;85;21167;-83
2021/04/05 06:25:13;;;;;;;12.25;7.45;;;;;;;3.67;68.72;98847.80;1623000;88;21179;-83
2021/04/05 06:28:35;;;;;;;10.13;6.45;;;;;;;3.82;68.75;98842.45;1636543;88;21168;-83
2021/04/05 06:31:15;;;;;;;12.60;5.83;;;;;;;3.95;68.49;98838.09;1628209;87;21175;-85
2021/04/05 06:33:51;;;;;;;9.30;6.17;;;;;;;4.10;68.18;98833.58;1610986;89;21148;-83
2021/04/05 06:36:32;;;;;;;12.35;6.17;;;;;;;4.22;67.73;98811.84;1611092;88;21140;-83
2021/04/05 06:39:26;;;;;;;9.95;5.87;;;;;;;4.33;67.94;98805.84;1579973;89;21559;-83
2021/04/05 06:42:29;;;;;;;12.47;6.35;;;;;;;4.42;67.64;98809.12;1611056;88;21227;-82
2021/04/05 06:45:22;;;;;;;9.05;6.22;;;;;;;4.51;67.33;98799.77;1611341;89;21820;-83
2021/04/05 06:48:08;;;;;;;13.00;6.83;;;;;;;4.61;67.56;98797.72;1611226;88;21183;-83
2021/04/05 06:50:52;;;;;;;11.35;6.65;;;;;;;4.70;67.64;98790.97;1577602;89;21156;-83
2021/04/05 06:53:49;;;;;;;12.37;7.05;;;;;;;4.81;67.65;98776.66;1611172;89;21206;-84
2021/04/05 06:59:34;;;;;;;9.73;6.60;;;;;;;5.09;67.48;98768.90;1859919;77;23073;-82
2021/04/05 07:02:36;;;;;;;12.33;6.97;;;;;;;5.16;67.58;98764.05;1791158;79;21168;-82
2021/04/05 07:05:33;;;;;;;12.85;6.85;;;;;;;5.30;67.14;98757.80;1800597;79;21561;-82
2021/04/05 07:08:19;;;;;;;12.82;6.85;;;;;;;5.46;66.68;98757.44;1783284;80;21719;-83
2021/04/05 07:10:53;;;;;;;11.75;8.10;;;;;;;5.63;66.80;98766.16;1741154;82;21129;-82
2021/04/05 07:13:53;;;;;;;13.58;6.42;;;;;;;5.79;66.31;98764.48;1744694;81;21570;-83
2021/04/05 07:16:43;;;;;;;13.60;7.42;;;;;;;5.93;65.88;98764.77;1779579;79;21145;-84
2021/04/05 07:19:36;;;;;;;12.25;7.50;;;;;;;6.03;65.82;98750.83;1785057;79;21115;-83
2021/04/05 07:22:22;;;;;;;12.30;7.67;;;;;;;6.13;66.02;98730.47;1773587;79;21564;-83
2021/04/05 07:25:15;;;;;;;11.22;6.45;;;;;;;6.24;65.82;98728.63;1791335;79;21138;-83
2021/04/05 07:28:08;;;;;;;15.38;7.85;;;;;;;6.34;65.72;98725.63;1789378;80;21117;-82
2021/04/05 07:30:56;;;;;;;12.25;7.10;;;;;;;6.45;65.91;98719.55;1790847;80;21169;-83
2021/04/05 07:33:39;;;;;;;14.45;8.23;;;;;;;6.61;65.32;98715.66;1787448;80;21124;-84
2021/04/05 07:36:37;;;;;;;12.47;7.05;;;;;;;6.75;65.10;98709.65;1783637;79;21274;-82
2021/04/05 07:39:43;;;;;;;9.68;5.87;;;;;;;6.88;64.53;98698.98;1792676;79;21185;-82
2021/04/05 07:42:48;;;;;;;11.18;7.40;;;;;;;7.01;64.03;98698.31;1800724;79;21575;-83
2021/04/05 07:45:38;;;;;;;12.20;6.25;;;;;;;7.14;63.80;98699.88;1801095;79;21478;-83
2021/04/05 07:48:21;;;;;;;10.08;6.08;;;;;;;7.26;64.00;98692.30;1790828;79;21109;-84
2021/04/05 07:51:14;;;;;;;11.05;5.83;;;;;;;7.39;63.41;98681.59;1783440;80;21154;-83
2021/04/05 07:54:05;;;;;;;16.45;5.97;;;;;;;7.53;63.32;98674.66;1752548;81;21080;-82
2021/04/05 07:56:35;;;;;;;10.90;5.87;;;;;;;7.60;62.26;98671.89;1744355;82;21096;-83
2021/04/05 07:59:16;;;;;;;13.28;6.05;;;;;;;7.67;61.64;98666.94;1783879;79;21104;-83
2021/04/05 08:02:16;;;;;;;12.35;5.97;;;;;;;7.74;61.96;98660.18;1735806;81;21157;-83
2021/04/05 08:04:56;;;;;;;12.07;6.00;;;;;;;7.80;60.97;98637.33;1775479;80;21277;-83
2021/04/05 08:07:45;;;;;;;11.08;5.45;;;;;;;7.90;61.70;98638.66;1756110;80;21154;-83
2021/04/05 08:10:51;;;;;;;13.83;6.65;;;;;;;7.96;62.03;98639.41;1803848;79;21110;-83
2021/04/05 08:13:42;;;;;;;9.55;5.62;;;;;;;8.06;61.32;98630.23;1760418;80;21612;-83
2021/04/05 08:16:31;;;;;;;9.90;5.12;;;;;;;8.18;60.44;98630.45;1748903;81;21139;-84
2021/04/05 08:19:23;;;;;;;9.98;5.12;;;;;;;8.29;60.06;98630.80;1789637;79;21552;-84
2021/04/05 08:22:25;;;;;;;9.98;6.83;;;;;;;8.40;59.08;98632.02;1786596;80;21128;-83
2021/04/05 08:25:31;;;;;;;12.58;5.50;;;;;;;8.53;58.66;98619.42;1773717;80;21513;-83
2021/04/05 08:28:29;;;;;;;8.83;5.00;;;;;;;8.69;58.27;98624.13;1754379;81;21293;-82
2021/04/05 08:31:26;;;;;;;13.80;6.08;;;;;;;8.83;57.27;98617.58;1766126;80;21137;-83
2021/04/05 08:34:34;;;;;;;12.73;6.05;;;;;;;9.03;58.20;98618.36;1757471;81;21079;-83
2021/04/05 08:37:12;;;;;;;10.03;5.30;;;;;;;9.22;57.46;98613.03;1791589;79;21205;-84
2021/04/05 08:40:21;;;;;;;14.58;5.47;;;;;;;9.38;57.36;98611.11;1779253;80;21539;-83
2021/04/05 08:43:44;;;;;;;11.28;4.85;;;;;;;9.47;56.80;98606.26;1716680;83;21204;-87
2021/04/05 08:46:18;;;;;;;13.50;5.67;;;;;;;9.53;55.69;98595.64;1763324;80;21124;-85
2021/04/05 08:48:48;;;;;;;11.08;5.50;;;;;;;9.61;56.35;98583.41;1786041;80;21466;-85
2021/04/05 08:51:19;;;;;;;9.85;6.03;;;;;;;9.66;56.25;98569.78;1758395;80;21101;-85
2021/04/05 08:53:53;;;;;;;12.53;5.92;;;;;;;9.72;56.22;98559.98;1775086;79;21155;-85
2021/04/05 08:56:26;;;;;;;13.85;5.92;;;;;;;9.80;55.38;98569.27;1795219;79;21104;-84
2021/04/05 08:59:03;;;;;;;12.45;5.87;;;;;;;9.87;55.79;98572.12;1792375;80;21643;-84
2021/04/05 09:01:49;;;;;;;13.43;7.20;;;;;;;9.93;55.11;98568.91;1765630;80;21138;-85
2021/04/05 09:04:24;;;;;;;13.72;7.33;;;;;;;9.96;55.07;98565.14;1722401;82;21181;-84
2021/04/05 09:07:36;;;;;;;13.68;6.97;;;;;;;9.96;54.95;98567.78;1777257;80;21148;-83
2021/04/05 09:10:07;;;;;;;23.07;7.72;;;;;;;9.98;54.62;98560.56;1764076;80;21092;-85
2021/04/05 09:12:38;;;;;;;16.93;7.42;;;;;;;9.96;55.15;98542.25;1777801;80;21047;-84
2021/04/05 09:15:31;;;;;;;13.68;7.12;;;;;;;9.99;55.19;98543.77;1760744;80;21112;-83
2021/04/05 09:18:20;;;;;;;14.35;7.92;;;;;;;9.98;54.78;98539.48;1779985;80;21081;-84
2021/04/05 09:21:16;;;;;;;18.55;7.55;;;;;;;9.94;54.76;98548.67;1781076;80;21141;-83
2021/04/05 09:24:15;;;;;;;12.95;6.42;;;;;;;9.88;54.75;98547.95;1779350;80;21524;-90
2021/04/05 09:26:55;;;;;;;16.00;7.72;;;;;;;9.82;54.39;98546.25;1779291;79;21505;-84
2021/04/05 09:29:47;;;;;;;11.45;6.97;;;;;;;9.76;54.47;98541.58;1781072;79;21109;-83
2021/04/05 09:32:48;;;;;;;14.73;9.15;;;;;;;9.72;54.17;98547.30;1746852;81;21155;-84
2021/04/05 09:36:00;;;;;;;15.78;7.42;;;;;;;9.69;54.28;98537.06;1757423;81;21125;-85
2021/04/05 09:39:10;;;;;;;16.15;6.92;;;;;;;9.67;54.76;98537.20;1749830;81;21135;-84
2021/04/05 09:42:02;;;;;;;17.42;9.30;;;;;;;9.70;55.88;98513.69;1754931;80;21585;-83
2021/04/05 09:45:06;;;;;;;17.60;8.50;;;;;;;9.78;55.14;98517.73;1760945;80;21194;-84
2021/04/05 09:48:19;;;;;;;13.43;7.67;;;;;;;9.82;55.20;98511.18;1744580;81;21105;-85
2021/04/05 09:51:26;;;;;;;19.35;7.45;;;;;;;9.86;55.09;98518.62;1762855;81;21563;-87
2021/04/05 09:54:32;;;;;;;17.60;7.67;;;;;;;9.90;54.25;98509.09;1776047;80;21128;-85
2021/04/05 09:57:08;;;;;;;15.25;8.05;;;;;;;9.89;54.55;98502.19;1760362;81;21619;-84
2021/04/05 09:59:48;;;;;;;11.50;6.65;;;;;;;9.91;54.70;98493.16;1765364;79;21140;-83
2021/04/05 10:02:16;;;;;;;15.38;7.90;;;;;;;9.95;54.54;98487.09;1777481;80;21154;-84
2021/04/05 10:04:45;;;;;;;20.65;9.78;;;;;;;9.99;54.32;98480.53;1784685;79;21255;-82
2021/04/05 10:07:13;;;;;;;12.90;6.78;;;;;;;10.02;54.34;98485.50;1790897;80;21156;-84
2021/04/05 10:09:42;;;;;;;13.30;7.35;;;;;;;10.02;53.97;98488.95;1751991;80;21559;-83
2021/04/05 10:12:09;;;;;;;13.25;7.72;;;;;;;10.01;53.75;98480.72;1760755;80;21125;-83
2021/04/05 10:14:39;;;;;;;21.45;8.33;;;;;;;10.01;54.10;98475.95;1748940;80;21089;-84
2021/04/05 10:17:06;;;;;;;13.90;7.22;;;;;;;10.04;54.06;98469.05;1757682;80;21155;-84
2021/04/05 10:19:41;;;;;;;20.82;10.98;;;;;;;10.06;53.96;98476.30;1782266;79;21201;-83
2021/04/05 10:22:18;;;;;;;16.15;7.67;;;;;;;10.07;53.70;98472.70;1793523;79;21116;-85
2021/04/05 10:24:49;;;;;;;13.05;7.58;;;;;;;10.08;53.75;98462.48;1762349;80;21130;-83
2021/04/05 10:27:21;;;;;;;15.28;8.43;;;;;;;10.06;53.90;98470.53;1775482;80;21128;-83
2021/04/05 10:29:53;;;;;;;17.15;7.53;;;;;;;10.11;54.08;98463.50;1732099;81;21156;-84
2021/04/05 10:32:25;;;;;;;19.37;7.40;;;;;;;10.18;53.54;98465.86;1742094;81;21409;-82
2021/04/05 10:34:55;;;;;;;19.27;10.03;;;;;;;10.25;54.03;98456.84;1777417;79;21123;-83
2021/04/05 10:37:31;;;;;;;16.70;8.80;;;;;;;10.32;54.08;98453.45;1782089;78;22295;-84
2021/04/05 10:39:59;;;;;;;20.70;8.60;;;;;;;10.40;53.03;98454.48;1769116;80;21138;-82
2021/04/05 10:42:36;;;;;;;15.03;7.60;;;;;;;10.44;52.92;98457.16;1753044;79;21201;-83
2021/04/05 10:45:09;;;;;;;14.80;7.97;;;;;;;10.49;52.72;98442.50;1748217;80;21124;-83
2021/04/05 10:47:50;;;;;;;10.78;6.97;;;;;;;10.54;52.17;98435.46;1770033;80;21134;-84
2021/04/05 10:50:19;;;;;;;12.82;7.05;;;;;;;10.62;52.83;98433.34;1759499;81;21144;-82
2021/04/05 10:52:48;;;;;;;11.38;6.78;;;;;;;10.74;53.30;98428.13;1761155;80;21102;-83
2021/04/05 10:55:23;;;;;;;15.30;8.40;;;;;;;10.84;52.48;98431.47;1768611;79;21729;-83
2021/04/05 10:57:59;;;;;;;15.85;9.13;;;;;;;10.88;52.09;98413.50;1800966;79;21145;-83
2021/04/05 11:00:30;;;;;;;11.73;6.15;;;;;;;10.91;52.16;98415.33;1763580;79;21093;-82
2021/04/05 11:03:24;;;;;;;12.45;6.95;;;;;;;10.93;51.34;98412.05;1760855;80;21138;-84
2021/04/05 11:06:04;;;;;;;13.35;6.70;;;;;;;10.97;51.24;98390.13;1713985;81;21120;-83
2021/04/05 11:08:34;;;;;;;10.78;6.50;;;;;;;11.01;51.03;98380.89;1760809;80;21681;-84
2021/04/05 11:11:14;;;;;;;11.38;6.92;;;;;;;11.01;51.18;98385.67;1776078;80;21121;-82
2021/04/05 11:13:48;;;;;;;12.65;6.87;;;;;;;10.99;51.24;98373.61;1760884;80;21122;-82
2021/04/05 11:16:18;;;;;;;17.87;6.97;;;;;;;10.97;50.57;98367.19;1769609;80;21129;-84
2021/04/05 11:19:03;;;;;;;11.80;7.00;;;;;;;10.95;50.73;98369.66;1762848;80;21650;-83
2021/04/05 11:21:39;;;;;;;12.18;6.62;;;;;;;10.94;50.99;98358.77;1759133;81;21190;-83
2021/04/05 11:24:09;;;;;;;14.55;7.75;;;;;;;10.94;50.54;98341.13;1761762;79;21175;-82
2021/04/05 11:26:37;;;;;;;14.58;7.12;;;;;;;10.95;51.04;98337.48;1754826;80;21065;-82
2021/04/05 11:29:08;;;;;;;13.45;7.78;;;;;;;10.97;50.96;98333.38;1790150;80;21217;-83
2021/04/05 11:31:41;;;;;;;14.43;7.50;;;;;;;10.98;50.89;98337.16;1771357;80;21138;-83
2021/04/05 11:34:08;;;;;;;14.40;7.15;;;;;;;10.97;51.11;98330.74;1783795;80;21121;-84
2021/04/05 11:36:44;;;;;;;13.32;7.55;;;;;;;11.00;51.13;98327.28;1754385;79;21121;-84
2021/04/05 11:39:17;;;;;;;19.30;7.97;;;;;;;11.04;51.03;98333.06;1764374;80;21162;-83
2021/04/05 11:41:53;;;;;;;11.00;7.15;;;;;;;11.06;51.11;98321.86;1765965;80;21494;-82
2021/04/05 11:44:25;;;;;;;14.75;7.67;;;;;;;11.08;50.99;98310.63;1747498;80;21085;-84
2021/04/05 11:46:55;;;;;;;13.15;7.90;;;;;;;11.13;51.27;98309.65;1757151;81;21137;-85
2021/04/05 11:49:22;;;;;;;10.13;6.22;;;;;;;11.18;50.57;98310.47;1779593;79;21100;-85
2021/04/05 11:52:22;;;;;;;14.18;7.40;;;;;;;11.21;50.12;98308.32;1739774;80;21119;-84
2021/04/05 11:54:56;;;;;;;11.65;6.25;;;;;;;11.25;50.36;98312.77;1744648;81;21105;-85
2021/04/05 11:57:28;;;;;;;11.35;6.30;;;;;;;11.30;49.40;98312.30;1754099;80;21189;-85
2021/04/05 12:00:01;;;;;;;13.65;6.58;;;;;;;11.33;48.71;98298.27;1755991;79;21137;-85
2021/04/05 12:02:42;;;;;;;10.10;6.17;;;;;;;11.38;49.12;98297.27;1749507;80;21278;-85
2021/04/05 12:05:30;;;;;;;13.32;6.28;;;;;;;11.43;48.76;98294.14;1749979;80;21136;-84
2021/04/05 12:08:04;;;;;;;11.25;6.78;;;;;;;11.51;48.68;98291.48;1761838;80;21094;-84
2021/04/05 12:10:32;;;;;;;11.65;6.03;;;;;;;11.57;48.93;98290.81;1746495;81;21116;-83
2021/04/05 12:13:22;;;;;;;12.28;6.22;;;;;;;11.61;48.39;98280.73;1762221;80;21653;-83
2021/04/05 12:15:57;;;;;;;15.78;6.20;;;;;;;11.64;48.47;98287.01;1732593;82;21587;-83
2021/04/05 12:18:25;;;;;;;9.33;4.85;;;;;;;11.67;47.58;98287.50;1746834;80;21119;-83
2021/04/05 12:21:12;;;;;;;11.53;6.20;;;;;;;11.69;46.96;98274.14;1714614;82;21133;-83
2021/04/05 12:23:40;;;;;;;12.55;7.17;;;;;;;11.68;46.87;98277.75;1708175;83;21619;-83